Syracuse Hancock International Airport
KSYR : now visible

Aeroporto :











RITROVATECI SU...

 
LOGIN :

Iscrizione | Disclaimer

   EN    FR    IT 

 









Sommario :    VFR   VFR Marginale   IFR   IFR Intensivo   IFR Molto Intensivo
Visibilità : 
Base nubi : 
>= 8 km
>= 3000ft
5 / 8 km
1000 / 3000 ft
1500m / 5 km
500 / 1000 ft
800 / 1500m
200 / 500 ft
< 800m
< 200 ft
Simboli :   Temporali  Nebbia  Neve Forte  Precipitazioni Forti  Vento > 20 kt






- Altitudine del aeroporto : 421 ft
- Codice IATA : SYR


KSYR - Syracuse Hancock International

ULTIMO METAR :
  • 070154Z 36005KT 10SM FEW019 SCT025 OVC032 M03/M06 A3017 RMK AO2 SLP220 T10281056

METARs OBSOLETI :
  • 070054Z 31007KT 10SM OVC035 M02/M06 A3016 RMK AO2 SNE04 SLP214 P0000 T10171056
  • 070008Z 31011KT 9SM FEW023 FEW028 OVC037 M01/M04 A3013 RMK AO2 SNE04 P0000 T10111044
  • 062354Z 31009KT 10SM -SN FEW017 BKN025 OVC037 M01/M04 A3012 RMK AO2 SLP202 P0000 60007 T10111039 10000 21011 51048
  • 062331Z 31012KT 9SM -SN FEW008 BKN023 OVC031 M01/M03 A3011 RMK AO2 P0000 T10061033
  • 062318Z 31011KT 3SM -SN BR SCT010 BKN023 OVC030 M01/M03 A3010 RMK AO2 P0000 T10061028
  • 062312Z 30012KT 2SM -SN BR SCT009 BKN014 OVC028 M01/M03 A3010 RMK AO2 P0000 T10061028
  • 062254Z 29007KT 7SM -SN BKN013 BKN019 OVC043 M01/M03 A3008 RMK AO2 SLP188 P0000 T10061028

TAF KSYR
Valido dal 07 a 00 ore il 08 a 00 ore UTC


062327Z 0700/0724 30008KT P6SM -SHSN SCT015 OVC025
TEMPO 0700/0703 3SM -SHSN BR OVC015
FM070300 30005KT P6SM -SHSN OVC025
TEMPO 0703/0707 3SM -SHSN BR OVC015
FM070700 28005KT 4SM -SHSN BR OVC015
TEMPO 0707/0711 2SM -SHSN BR BKN008 OVC012
FM071200 28008KT P6SM OVC025
FM071800 29008KT P6SM BKN035



MetMap, La meteo Aeronautica in un colpo d'occhio ! - Copyright ORBIFLY Dicembre 2007 - Disclaimer

ORBIFLY MET'MAP TEAM :

Programmazione e sviluppo : Alexandra Zaïnal
Concezione : Baudouin d'Aumeries
Aiuto per la programmazione : Marc-Olivier Méhu
Supporto tecnico e logistico : Manuel Goepfert
Aiuto per la traduzione : Arnaldo La Scala

Contatto : metmap@orbifly.com




FONTI E CREDITI :

   NOAA       Earth
Advisory